Ormond Beach, FL (32174)

11:22 PM EST on December 28, 2014 (GMT -0500)
Ormond Beach Fire Station 92 - South | Change Station
CLOSE
Current Station
Personal Weather Station
Location: Ormond Beach, FL
Elevation: 25 ft
Nearby Weather Stations

Elev 25 ft 29.28 °N, 81.08 °W | Updated 3 seconds ago

Clear
Clear
66.5 °F
Feels Like 66.5 °F
N
0.0
Wind Variable Wind from WNW
Gusts 0.0 mph

Today
High -- | Low -- °F
--% Chance of Precip.
Yesterday
High -- | Low -- °F
Precip. -- in
7:17 AM 5:34 PM
First Quarter, 54% visible
Pressure 30.13 in
Visibility 7.0 miles
Clouds Few 25000 ft
Dew Point 20 °F
Humidity 17%
Rainfall 0.00 in
Snow Depth Not available.
UV 0 out of 12
Pollen 5.50 out of 12
Air Quality Not available.
Flu Activity Not available.
METAR KDAB 290353Z 00000KT 7SM FEW250 19/18 A3013 RMK AO2 SLP202 T01940183

More Conditions Fewer Conditions

Pressure 30.13 in
Visibility 7.0 miles
Clouds Few 25000 ft
Dew Point 20 °F
Humidity 17%
Rainfall 0.00 in
Snow Depth Not available.
UV 0 out of 12
Pollen 5.50 out of 12
Air Quality Not available.
Flu Activity Not available.
METAR KDAB 290353Z 00000KT 7SM FEW250 19/18 A3013 RMK AO2 SLP202 T01940183

More Conditions Fewer Conditions

10-Day Weather Forecast

Almanac

Astronomy

Dec. 28, 2014 Rise Set
Actual Time
Civil Twilight
Nautical Twilight
Astronomical Twilight
Moon
Length of Visible Light
Length of Day
Tomorrow will be .
, % of the Moon is Illuminated

Today's Extremes

State Highs State Lows

Community

WunderPhotos

Upload Photos

1,781,534 photos uploaded!

WunderBlogs® & News

Nearby

Air Quality

  Air Quality AQ Index Pollutant
Not available.

Snow Depth

Station Depth Elevation

Earthquake Activity

City Distance Mag. Time & Date
Minimum magnitude displayed is 2.5.

Coastal Water Temperatures

Place Temperature

Nearby Weather Stations